sensor_id;sensor_type;location;lat;lon;timestamp;P1;durP1;ratioP1;P2;durP2;ratioP2
13951;SDS011;39535;52.192;9.886;2023-04-01T00:00:05;1.27;;;0.67;;
13951;SDS011;39535;52.192;9.886;2023-04-01T00:02:33;1.77;;;0.73;;
13951;SDS011;39535;52.192;9.886;2023-04-01T00:04:59;2.10;;;0.80;;
13951;SDS011;39535;52.192;9.886;2023-04-01T00:07:26;1.27;;;0.80;;
13951;SDS011;39535;52.192;9.886;2023-04-01T00:09:53;2.37;;;0.77;;
13951;SDS011;39535;52.192;9.886;2023-04-01T00:12:19;2.03;;;0.90;;
13951;SDS011;39535;52.192;9.886;2023-04-01T00:14:46;2.07;;;0.77;;
13951;SDS011;39535;52.192;9.886;2023-04-01T00:17:13;2.07;;;0.90;;
13951;SDS011;39535;52.192;9.886;2023-04-01T00:19:40;2.00;;;0.67;;
13951;SDS011;39535;52.192;9.886;2023-04-01T00:22:06;1.63;;;0.70;;
13951;SDS011;39535;52.192;9.886;2023-04-01T00:24:36;1.20;;;0.70;;
13951;SDS011;39535;52.192;9.886;2023-04-01T00:27:02;2.03;;;0.70;;
13951;SDS011;39535;52.192;9.886;2023-04-01T00:29:29;1.73;;;0.80;;
13951;SDS011;39535;52.192;9.886;2023-04-01T00:31:56;2.23;;;0.80;;
13951;SDS011;39535;52.192;9.886;2023-04-01T00:34:24;2.03;;;0.60;;
13951;SDS011;39535;52.192;9.886;2023-04-01T00:36:51;1.07;;;0.53;;
13951;SDS011;39535;52.192;9.886;2023-04-01T00:39:19;1.20;;;0.60;;
13951;SDS011;39535;52.192;9.886;2023-04-01T00:41:46;2.03;;;0.60;;
13951;SDS011;39535;52.192;9.886;2023-04-01T00:44:17;1.43;;;0.53;;
13951;SDS011;39535;52.192;9.886;2023-04-01T00:46:45;1.13;;;0.93;;
13951;SDS011;39535;52.192;9.886;2023-04-01T00:49:12;1.10;;;0.53;;
13951;SDS011;39535;52.192;9.886;2023-04-01T00:51:41;1.60;;;0.40;;
13951;SDS011;39535;52.192;9.886;2023-04-01T00:54:10;0.57;;;0.50;;
13951;SDS011;39535;52.192;9.886;2023-04-01T00:56:38;1.00;;;0.50;;
13951;SDS011;39535;52.192;9.886;2023-04-01T00:59:14;0.87;;;0.60;;
13951;SDS011;39535;52.192;9.886;2023-04-01T01:01:45;1.57;;;0.57;;
13951;SDS011;39535;52.192;9.886;2023-04-01T01:04:20;0.50;;;0.40;;
13951;SDS011;39535;52.192;9.886;2023-04-01T01:06:51;0.93;;;0.57;;
13951;SDS011;39535;52.192;9.886;2023-04-01T01:09:28;1.67;;;0.50;;
13951;SDS011;39535;52.192;9.886;2023-04-01T01:12:02;0.83;;;0.50;;
13951;SDS011;39535;52.192;9.886;2023-04-01T01:14:36;1.63;;;0.63;;
13951;SDS011;39535;52.192;9.886;2023-04-01T01:17:12;1.20;;;0.50;;
13951;SDS011;39535;52.192;9.886;2023-04-01T01:19:49;1.47;;;0.37;;
13951;SDS011;39535;52.192;9.886;2023-04-01T01:22:34;1.90;;;0.40;;
13951;SDS011;39535;52.192;9.886;2023-04-01T01:25:14;0.80;;;0.70;;
13951;SDS011;39535;52.192;9.886;2023-04-01T01:27:49;0.97;;;0.40;;
13951;SDS011;39535;52.192;9.886;2023-04-01T01:30:32;0.60;;;0.30;;
13951;SDS011;39535;52.192;9.886;2023-04-01T01:33:06;1.00;;;0.30;;
13951;SDS011;39535;52.192;9.886;2023-04-01T01:35:42;1.23;;;0.70;;
13951;SDS011;39535;52.192;9.886;2023-04-01T01:38:13;1.20;;;0.40;;
13951;SDS011;39535;52.192;9.886;2023-04-01T01:40:42;1.47;;;0.40;;
13951;SDS011;39535;52.192;9.886;2023-04-01T01:43:11;0.57;;;0.40;;
13951;SDS011;39535;52.192;9.886;2023-04-01T01:45:43;0.60;;;0.50;;
13951;SDS011;39535;52.192;9.886;2023-04-01T01:48:11;1.40;;;0.70;;
13951;SDS011;39535;52.192;9.886;2023-04-01T01:50:38;0.73;;;0.40;;
13951;SDS011;39535;52.192;9.886;2023-04-01T01:53:09;0.70;;;0.43;;
13951;SDS011;39535;52.192;9.886;2023-04-01T01:55:38;2.40;;;0.80;;
13951;SDS011;39535;52.192;9.886;2023-04-01T01:58:07;0.90;;;0.40;;
13951;SDS011;39535;52.192;9.886;2023-04-01T02:00:39;1.00;;;0.50;;
13951;SDS011;39535;52.192;9.886;2023-04-01T02:03:09;2.77;;;1.07;;
13951;SDS011;39535;52.192;9.886;2023-04-01T02:05:38;2.00;;;0.50;;
13951;SDS011;39535;52.192;9.886;2023-04-01T02:08:06;1.67;;;0.50;;
13951;SDS011;39535;52.192;9.886;2023-04-01T02:10:39;1.73;;;0.30;;
13951;SDS011;39535;52.192;9.886;2023-04-01T02:13:11;0.60;;;0.60;;
13951;SDS011;39535;52.192;9.886;2023-04-01T02:15:42;0.60;;;0.43;;
13951;SDS011;39535;52.192;9.886;2023-04-01T02:18:13;1.47;;;0.50;;
13951;SDS011;39535;52.192;9.886;2023-04-01T02:20:41;1.03;;;0.40;;
13951;SDS011;39535;52.192;9.886;2023-04-01T02:23:11;1.80;;;0.43;;
13951;SDS011;39535;52.192;9.886;2023-04-01T02:25:39;1.03;;;0.50;;
13951;SDS011;39535;52.192;9.886;2023-04-01T02:28:08;0.80;;;0.43;;
13951;SDS011;39535;52.192;9.886;2023-04-01T02:30:37;0.97;;;0.50;;
13951;SDS011;39535;52.192;9.886;2023-04-01T02:33:07;1.63;;;0.50;;
13951;SDS011;39535;52.192;9.886;2023-04-01T02:35:35;1.23;;;0.53;;
13951;SDS011;39535;52.192;9.886;2023-04-01T02:38:02;1.47;;;0.40;;
13951;SDS011;39535;52.192;9.886;2023-04-01T02:40:39;1.07;;;0.60;;
13951;SDS011;39535;52.192;9.886;2023-04-01T02:43:07;0.83;;;0.50;;
13951;SDS011;39535;52.192;9.886;2023-04-01T02:45:34;1.67;;;0.50;;
13951;SDS011;39535;52.192;9.886;2023-04-01T02:48:00;2.50;;;0.40;;
13951;SDS011;39535;52.192;9.886;2023-04-01T02:50:27;1.13;;;0.40;;
13951;SDS011;39535;52.192;9.886;2023-04-01T02:52:53;0.43;;;0.40;;
13951;SDS011;39535;52.192;9.886;2023-04-01T02:55:21;1.10;;;0.40;;
13951;SDS011;39535;52.192;9.886;2023-04-01T02:57:49;1.13;;;0.50;;
13951;SDS011;39535;52.192;9.886;2023-04-01T03:00:16;2.67;;;0.67;;
13951;SDS011;39535;52.192;9.886;2023-04-01T03:02:43;0.70;;;0.30;;
13951;SDS011;39535;52.192;9.886;2023-04-01T03:05:09;1.10;;;0.50;;
13951;SDS011;39535;52.192;9.886;2023-04-01T03:07:36;1.67;;;0.40;;
13951;SDS011;39535;52.192;9.886;2023-04-01T03:10:02;1.80;;;0.63;;
13951;SDS011;39535;52.192;9.886;2023-04-01T03:12:29;0.93;;;0.40;;
13951;SDS011;39535;52.192;9.886;2023-04-01T03:14:57;2.07;;;0.50;;
13951;SDS011;39535;52.192;9.886;2023-04-01T03:17:23;1.60;;;0.63;;
13951;SDS011;39535;52.192;9.886;2023-04-01T03:19:50;0.83;;;0.50;;
13951;SDS011;39535;52.192;9.886;2023-04-01T03:22:16;1.70;;;0.53;;
13951;SDS011;39535;52.192;9.886;2023-04-01T03:24:45;0.80;;;0.50;;
13951;SDS011;39535;52.192;9.886;2023-04-01T03:27:12;1.87;;;0.37;;
13951;SDS011;39535;52.192;9.886;2023-04-01T03:29:38;1.43;;;0.40;;
13951;SDS011;39535;52.192;9.886;2023-04-01T03:32:06;1.07;;;0.77;;
13951;SDS011;39535;52.192;9.886;2023-04-01T03:34:33;0.50;;;0.50;;
13951;SDS011;39535;52.192;9.886;2023-04-01T03:36:59;1.63;;;0.40;;
13951;SDS011;39535;52.192;9.886;2023-04-01T03:39:26;1.83;;;0.50;;
13951;SDS011;39535;52.192;9.886;2023-04-01T03:41:52;1.77;;;0.50;;
13951;SDS011;39535;52.192;9.886;2023-04-01T03:44:19;1.00;;;0.50;;
13951;SDS011;39535;52.192;9.886;2023-04-01T03:46:45;1.43;;;0.67;;
13951;SDS011;39535;52.192;9.886;2023-04-01T03:49:13;0.43;;;0.30;;
13951;SDS011;39535;52.192;9.886;2023-04-01T03:51:40;2.00;;;0.40;;
13951;SDS011;39535;52.192;9.886;2023-04-01T03:54:07;1.23;;;0.50;;
13951;SDS011;39535;52.192;9.886;2023-04-01T03:56:34;1.77;;;0.40;;
13951;SDS011;39535;52.192;9.886;2023-04-01T03:59:01;1.30;;;0.40;;
13951;SDS011;39535;52.192;9.886;2023-04-01T04:01:29;2.30;;;1.63;;
13951;SDS011;39535;52.192;9.886;2023-04-01T04:03:55;0.43;;;0.30;;
13951;SDS011;39535;52.192;9.886;2023-04-01T04:06:26;1.30;;;0.50;;
13951;SDS011;39535;52.192;9.886;2023-04-01T04:08:53;0.50;;;0.40;;
13951;SDS011;39535;52.192;9.886;2023-04-01T04:11:20;1.10;;;0.50;;
13951;SDS011;39535;52.192;9.886;2023-04-01T04:13:48;2.37;;;0.50;;
13951;SDS011;39535;52.192;9.886;2023-04-01T04:16:14;0.47;;;0.40;;
13951;SDS011;39535;52.192;9.886;2023-04-01T04:18:42;1.23;;;0.50;;
13951;SDS011;39535;52.192;9.886;2023-04-01T04:21:11;1.27;;;0.40;;
13951;SDS011;39535;52.192;9.886;2023-04-01T04:23:40;1.60;;;0.50;;
13951;SDS011;39535;52.192;9.886;2023-04-01T04:26:07;0.60;;;0.40;;
13951;SDS011;39535;52.192;9.886;2023-04-01T04:28:36;1.17;;;0.50;;
13951;SDS011;39535;52.192;9.886;2023-04-01T04:31:02;1.33;;;0.60;;
13951;SDS011;39535;52.192;9.886;2023-04-01T04:33:31;1.80;;;0.70;;
13951;SDS011;39535;52.192;9.886;2023-04-01T04:35:58;1.10;;;0.53;;
13951;SDS011;39535;52.192;9.886;2023-04-01T04:38:24;2.20;;;0.40;;
13951;SDS011;39535;52.192;9.886;2023-04-01T04:40:53;2.03;;;0.47;;
13951;SDS011;39535;52.192;9.886;2023-04-01T04:43:19;1.27;;;0.57;;
13951;SDS011;39535;52.192;9.886;2023-04-01T04:45:46;1.50;;;0.57;;
13951;SDS011;39535;52.192;9.886;2023-04-01T04:48:13;1.23;;;0.73;;
13951;SDS011;39535;52.192;9.886;2023-04-01T04:50:43;1.93;;;0.60;;
13951;SDS011;39535;52.192;9.886;2023-04-01T04:53:10;1.87;;;0.47;;
13951;SDS011;39535;52.192;9.886;2023-04-01T04:55:37;1.17;;;0.50;;
13951;SDS011;39535;52.192;9.886;2023-04-01T04:58:10;1.70;;;0.73;;
13951;SDS011;39535;52.192;9.886;2023-04-01T05:00:36;1.13;;;0.57;;
13951;SDS011;39535;52.192;9.886;2023-04-01T05:03:03;1.30;;;0.57;;
13951;SDS011;39535;52.192;9.886;2023-04-01T05:05:29;1.80;;;0.40;;
13951;SDS011;39535;52.192;9.886;2023-04-01T05:07:55;1.67;;;0.53;;
13951;SDS011;39535;52.192;9.886;2023-04-01T05:10:23;1.80;;;0.50;;
13951;SDS011;39535;52.192;9.886;2023-04-01T05:12:50;0.57;;;0.23;;
13951;SDS011;39535;52.192;9.886;2023-04-01T05:15:17;2.53;;;0.43;;
13951;SDS011;39535;52.192;9.886;2023-04-01T05:17:44;0.40;;;0.40;;
13951;SDS011;39535;52.192;9.886;2023-04-01T05:20:12;1.17;;;0.60;;
13951;SDS011;39535;52.192;9.886;2023-04-01T05:22:40;1.70;;;0.57;;
13951;SDS011;39535;52.192;9.886;2023-04-01T05:25:07;2.10;;;0.47;;
13951;SDS011;39535;52.192;9.886;2023-04-01T05:27:36;0.77;;;0.73;;
13951;SDS011;39535;52.192;9.886;2023-04-01T05:30:03;2.50;;;0.60;;
13951;SDS011;39535;52.192;9.886;2023-04-01T05:32:32;3.50;;;0.70;;
13951;SDS011;39535;52.192;9.886;2023-04-01T05:34:58;0.63;;;0.60;;
13951;SDS011;39535;52.192;9.886;2023-04-01T05:37:24;0.93;;;0.47;;
13951;SDS011;39535;52.192;9.886;2023-04-01T05:39:51;2.80;;;0.87;;
13951;SDS011;39535;52.192;9.886;2023-04-01T05:42:17;2.60;;;0.70;;
13951;SDS011;39535;52.192;9.886;2023-04-01T05:44:44;1.30;;;0.90;;
13951;SDS011;39535;52.192;9.886;2023-04-01T05:47:10;2.50;;;0.60;;
13951;SDS011;39535;52.192;9.886;2023-04-01T05:49:38;1.53;;;0.57;;
13951;SDS011;39535;52.192;9.886;2023-04-01T05:52:05;2.63;;;0.97;;
13951;SDS011;39535;52.192;9.886;2023-04-01T05:54:31;1.50;;;0.53;;
13951;SDS011;39535;52.192;9.886;2023-04-01T05:56:58;3.00;;;0.70;;
13951;SDS011;39535;52.192;9.886;2023-04-01T05:59:24;0.60;;;0.47;;
13951;SDS011;39535;52.192;9.886;2023-04-01T06:01:51;0.47;;;0.40;;
13951;SDS011;39535;52.192;9.886;2023-04-01T06:04:18;0.50;;;0.50;;
13951;SDS011;39535;52.192;9.886;2023-04-01T06:06:46;0.90;;;0.60;;
13951;SDS011;39535;52.192;9.886;2023-04-01T06:09:13;1.20;;;0.70;;
13951;SDS011;39535;52.192;9.886;2023-04-01T06:11:45;0.87;;;0.53;;
13951;SDS011;39535;52.192;9.886;2023-04-01T06:14:24;1.40;;;1.20;;
13951;SDS011;39535;52.192;9.886;2023-04-01T06:17:02;1.03;;;0.60;;
13951;SDS011;39535;52.192;9.886;2023-04-01T06:19:40;1.50;;;0.77;;
13951;SDS011;39535;52.192;9.886;2023-04-01T06:22:24;0.63;;;0.53;;
13951;SDS011;39535;52.192;9.886;2023-04-01T06:25:16;1.87;;;1.10;;
13951;SDS011;39535;52.192;9.886;2023-04-01T06:27:54;1.17;;;0.60;;
13951;SDS011;39535;52.192;9.886;2023-04-01T06:30:37;1.90;;;0.80;;
13951;SDS011;39535;52.192;9.886;2023-04-01T06:33:11;1.83;;;0.60;;
13951;SDS011;39535;52.192;9.886;2023-04-01T06:35:51;1.10;;;0.80;;
13951;SDS011;39535;52.192;9.886;2023-04-01T06:38:48;0.50;;;0.50;;
13951;SDS011;39535;52.192;9.886;2023-04-01T06:41:35;1.10;;;0.60;;
13951;SDS011;39535;52.192;9.886;2023-04-01T06:44:19;1.37;;;0.90;;
13951;SDS011;39535;52.192;9.886;2023-04-01T06:46:52;2.43;;;0.60;;
13951;SDS011;39535;52.192;9.886;2023-04-01T06:49:29;1.33;;;0.70;;
13951;SDS011;39535;52.192;9.886;2023-04-01T06:52:07;1.40;;;0.50;;
13951;SDS011;39535;52.192;9.886;2023-04-01T06:54:46;0.97;;;0.57;;
13951;SDS011;39535;52.192;9.886;2023-04-01T06:57:19;0.77;;;0.60;;
13951;SDS011;39535;52.192;9.886;2023-04-01T06:59:50;1.20;;;0.60;;
13951;SDS011;39535;52.192;9.886;2023-04-01T07:02:22;2.30;;;0.70;;
13951;SDS011;39535;52.192;9.886;2023-04-01T07:04:54;1.20;;;0.80;;
13951;SDS011;39535;52.192;9.886;2023-04-01T07:07:25;1.07;;;0.80;;
13951;SDS011;39535;52.192;9.886;2023-04-01T07:09:58;1.80;;;0.67;;
13951;SDS011;39535;52.192;9.886;2023-04-01T07:12:31;1.13;;;0.70;;
13951;SDS011;39535;52.192;9.886;2023-04-01T07:15:04;3.20;;;0.70;;
13951;SDS011;39535;52.192;9.886;2023-04-01T07:17:38;0.87;;;0.60;;
13951;SDS011;39535;52.192;9.886;2023-04-01T07:20:11;1.80;;;0.50;;
13951;SDS011;39535;52.192;9.886;2023-04-01T07:22:43;2.27;;;0.60;;
13951;SDS011;39535;52.192;9.886;2023-04-01T07:25:14;1.70;;;1.00;;
13951;SDS011;39535;52.192;9.886;2023-04-01T07:27:42;2.77;;;0.90;;
13951;SDS011;39535;52.192;9.886;2023-04-01T07:30:13;1.13;;;0.50;;
13951;SDS011;39535;52.192;9.886;2023-04-01T07:32:42;1.53;;;0.70;;
13951;SDS011;39535;52.192;9.886;2023-04-01T07:35:16;1.97;;;0.67;;
13951;SDS011;39535;52.192;9.886;2023-04-01T07:37:50;0.80;;;0.50;;
13951;SDS011;39535;52.192;9.886;2023-04-01T07:40:32;1.00;;;0.40;;
13951;SDS011;39535;52.192;9.886;2023-04-01T07:43:10;0.40;;;0.40;;
13951;SDS011;39535;52.192;9.886;2023-04-01T07:45:46;1.13;;;0.50;;
13951;SDS011;39535;52.192;9.886;2023-04-01T07:48:24;1.17;;;0.50;;
13951;SDS011;39535;52.192;9.886;2023-04-01T07:50:59;1.10;;;0.40;;
13951;SDS011;39535;52.192;9.886;2023-04-01T07:53:30;0.40;;;0.40;;
13951;SDS011;39535;52.192;9.886;2023-04-01T07:56:05;1.63;;;0.60;;
13951;SDS011;39535;52.192;9.886;2023-04-01T07:58:36;1.97;;;0.60;;
13951;SDS011;39535;52.192;9.886;2023-04-01T08:01:16;1.77;;;0.40;;
13951;SDS011;39535;52.192;9.886;2023-04-01T08:04:05;1.00;;;0.40;;
13951;SDS011;39535;52.192;9.886;2023-04-01T08:06:47;2.33;;;0.67;;
13951;SDS011;39535;52.192;9.886;2023-04-01T08:09:22;0.97;;;0.50;;
13951;SDS011;39535;52.192;9.886;2023-04-01T08:11:59;2.00;;;0.70;;
13951;SDS011;39535;52.192;9.886;2023-04-01T08:14:36;0.30;;;0.30;;
13951;SDS011;39535;52.192;9.886;2023-04-01T08:17:11;0.47;;;0.40;;
13951;SDS011;39535;52.192;9.886;2023-04-01T08:19:46;0.60;;;0.40;;
13951;SDS011;39535;52.192;9.886;2023-04-01T08:22:23;1.43;;;0.40;;
13951;SDS011;39535;52.192;9.886;2023-04-01T08:24:54;1.27;;;0.40;;
13951;SDS011;39535;52.192;9.886;2023-04-01T08:27:27;1.23;;;0.37;;
13951;SDS011;39535;52.192;9.886;2023-04-01T08:30:01;1.43;;;0.40;;
13951;SDS011;39535;52.192;9.886;2023-04-01T08:32:32;1.43;;;0.37;;
13951;SDS011;39535;52.192;9.886;2023-04-01T08:35:07;0.90;;;0.40;;
13951;SDS011;39535;52.192;9.886;2023-04-01T08:37:41;0.60;;;0.30;;
13951;SDS011;39535;52.192;9.886;2023-04-01T08:40:25;0.90;;;0.40;;
13951;SDS011;39535;52.192;9.886;2023-04-01T08:43:04;1.13;;;0.50;;
13951;SDS011;39535;52.192;9.886;2023-04-01T08:45:45;0.33;;;0.33;;
13951;SDS011;39535;52.192;9.886;2023-04-01T08:54:44;1.70;;;0.37;;
13951;SDS011;39535;52.192;9.886;2023-04-01T08:57:21;0.63;;;0.33;;
13951;SDS011;39535;52.192;9.886;2023-04-01T09:00:07;1.63;;;0.97;;
13951;SDS011;39535;52.192;9.886;2023-04-01T09:02:48;1.60;;;0.40;;
13951;SDS011;39535;52.192;9.886;2023-04-01T09:05:39;7.63;;;2.37;;
13951;SDS011;39535;52.192;9.886;2023-04-01T09:08:41;0.87;;;0.50;;
13951;SDS011;39535;52.192;9.886;2023-04-01T09:11:21;1.00;;;0.50;;
13951;SDS011;39535;52.192;9.886;2023-04-01T09:14:03;0.30;;;0.30;;
13951;SDS011;39535;52.192;9.886;2023-04-01T09:17:12;0.90;;;0.33;;
13951;SDS011;39535;52.192;9.886;2023-04-01T09:19:54;0.50;;;0.30;;
13951;SDS011;39535;52.192;9.886;2023-04-01T09:22:42;1.00;;;0.40;;
13951;SDS011;39535;52.192;9.886;2023-04-01T09:25:29;1.03;;;0.50;;
13951;SDS011;39535;52.192;9.886;2023-04-01T09:28:07;2.07;;;0.40;;
13951;SDS011;39535;52.192;9.886;2023-04-01T09:34:01;0.73;;;0.57;;
13951;SDS011;39535;52.192;9.886;2023-04-01T09:36:45;0.87;;;0.40;;
13951;SDS011;39535;52.192;9.886;2023-04-01T09:39:18;0.40;;;0.33;;
13951;SDS011;39535;52.192;9.886;2023-04-01T09:42:06;0.40;;;0.40;;
13951;SDS011;39535;52.192;9.886;2023-04-01T09:44:41;1.10;;;0.33;;
13951;SDS011;39535;52.192;9.886;2023-04-01T09:47:16;0.93;;;0.40;;
13951;SDS011;39535;52.192;9.886;2023-04-01T09:50:03;0.47;;;0.33;;
13951;SDS011;39535;52.192;9.886;2023-04-01T09:52:54;0.43;;;0.30;;
13951;SDS011;39535;52.192;9.886;2023-04-01T09:55:46;0.80;;;0.50;;
13951;SDS011;39535;52.192;9.886;2023-04-01T09:58:43;2.20;;;0.30;;
13951;SDS011;39535;52.192;9.886;2023-04-01T10:05:06;0.80;;;0.53;;
13951;SDS011;39535;52.192;9.886;2023-04-01T10:08:22;0.53;;;0.30;;
13951;SDS011;39535;52.192;9.886;2023-04-01T10:11:11;1.00;;;0.40;;
13951;SDS011;39535;52.192;9.886;2023-04-01T10:17:01;0.60;;;0.30;;
13951;SDS011;39535;52.192;9.886;2023-04-01T10:19:51;0.50;;;0.40;;
13951;SDS011;39535;52.192;9.886;2023-04-01T10:25:36;1.70;;;0.40;;
13951;SDS011;39535;52.192;9.886;2023-04-01T10:37:33;0.47;;;0.30;;
13951;SDS011;39535;52.192;9.886;2023-04-01T10:40:22;1.13;;;0.40;;
13951;SDS011;39535;52.192;9.886;2023-04-01T10:43:09;0.43;;;0.40;;
13951;SDS011;39535;52.192;9.886;2023-04-01T10:49:28;1.83;;;0.50;;
13951;SDS011;39535;52.192;9.886;2023-04-01T10:52:23;1.87;;;0.60;;
13951;SDS011;39535;52.192;9.886;2023-04-01T10:55:31;0.60;;;0.50;;
13951;SDS011;39535;52.192;9.886;2023-04-01T11:01:11;0.97;;;0.40;;
13951;SDS011;39535;52.192;9.886;2023-04-01T11:07:46;1.67;;;0.30;;
13951;SDS011;39535;52.192;9.886;2023-04-01T11:10:41;0.40;;;0.33;;
13951;SDS011;39535;52.192;9.886;2023-04-01T11:13:43;1.17;;;0.40;;
13951;SDS011;39535;52.192;9.886;2023-04-01T11:19:46;2.03;;;0.50;;
13951;SDS011;39535;52.192;9.886;2023-04-01T11:22:32;1.33;;;0.90;;
13951;SDS011;39535;52.192;9.886;2023-04-01T11:25:17;0.30;;;0.30;;
13951;SDS011;39535;52.192;9.886;2023-04-01T11:28:01;0.40;;;0.40;;
13951;SDS011;39535;52.192;9.886;2023-04-01T11:30:58;0.83;;;0.70;;
13951;SDS011;39535;52.192;9.886;2023-04-01T11:33:31;2.30;;;0.83;;
13951;SDS011;39535;52.192;9.886;2023-04-01T11:36:10;0.87;;;0.70;;
13951;SDS011;39535;52.192;9.886;2023-04-01T11:38:48;1.23;;;0.70;;
13951;SDS011;39535;52.192;9.886;2023-04-01T11:41:25;0.50;;;0.40;;
13951;SDS011;39535;52.192;9.886;2023-04-01T11:44:07;1.70;;;0.60;;
13951;SDS011;39535;52.192;9.886;2023-04-01T11:46:42;0.30;;;0.30;;
13951;SDS011;39535;52.192;9.886;2023-04-01T11:49:29;0.70;;;0.30;;
13951;SDS011;39535;52.192;9.886;2023-04-01T11:52:12;0.50;;;0.30;;
13951;SDS011;39535;52.192;9.886;2023-04-01T11:54:52;0.20;;;0.20;;
13951;SDS011;39535;52.192;9.886;2023-04-01T11:57:44;0.63;;;0.30;;
13951;SDS011;39535;52.192;9.886;2023-04-01T12:00:24;0.47;;;0.30;;
13951;SDS011;39535;52.192;9.886;2023-04-01T12:03:11;0.53;;;0.37;;
13951;SDS011;39535;52.192;9.886;2023-04-01T12:05:54;0.40;;;0.40;;
13951;SDS011;39535;52.192;9.886;2023-04-01T12:08:31;1.30;;;0.60;;
13951;SDS011;39535;52.192;9.886;2023-04-01T12:11:09;0.40;;;0.30;;
13951;SDS011;39535;52.192;9.886;2023-04-01T12:13:43;0.33;;;0.30;;
13951;SDS011;39535;52.192;9.886;2023-04-01T12:19:11;0.77;;;0.47;;
13951;SDS011;39535;52.192;9.886;2023-04-01T12:21:45;1.33;;;0.40;;
13951;SDS011;39535;52.192;9.886;2023-04-01T12:24:36;0.80;;;0.53;;
13951;SDS011;39535;52.192;9.886;2023-04-01T12:27:23;1.00;;;0.57;;
13951;SDS011;39535;52.192;9.886;2023-04-01T12:30:04;0.90;;;0.40;;
13951;SDS011;39535;52.192;9.886;2023-04-01T12:32:44;1.13;;;0.70;;
13951;SDS011;39535;52.192;9.886;2023-04-01T12:35:20;0.47;;;0.43;;
13951;SDS011;39535;52.192;9.886;2023-04-01T12:37:55;0.40;;;0.30;;
13951;SDS011;39535;52.192;9.886;2023-04-01T12:40:38;0.47;;;0.40;;
13951;SDS011;39535;52.192;9.886;2023-04-01T12:43:19;0.27;;;0.27;;
13951;SDS011;39535;52.192;9.886;2023-04-01T12:46:00;1.03;;;0.40;;
13951;SDS011;39535;52.192;9.886;2023-04-01T12:51:57;0.40;;;0.33;;
13951;SDS011;39535;52.192;9.886;2023-04-01T12:54:41;0.50;;;0.43;;
13951;SDS011;39535;52.192;9.886;2023-04-01T12:57:46;0.87;;;0.33;;
13951;SDS011;39535;52.192;9.886;2023-04-01T13:00:45;0.30;;;0.30;;
13951;SDS011;39535;52.192;9.886;2023-04-01T13:03:37;0.20;;;0.20;;
13951;SDS011;39535;52.192;9.886;2023-04-01T13:06:27;0.30;;;0.30;;
13951;SDS011;39535;52.192;9.886;2023-04-01T13:09:06;0.40;;;0.40;;
13951;SDS011;39535;52.192;9.886;2023-04-01T13:11:46;0.97;;;0.60;;
13951;SDS011;39535;52.192;9.886;2023-04-01T13:17:12;1.43;;;0.40;;
13951;SDS011;39535;52.192;9.886;2023-04-01T13:19:46;0.43;;;0.43;;
13951;SDS011;39535;52.192;9.886;2023-04-01T13:22:22;0.80;;;0.50;;
13951;SDS011;39535;52.192;9.886;2023-04-01T13:24:57;1.27;;;0.40;;
13951;SDS011;39535;52.192;9.886;2023-04-01T13:27:33;0.77;;;0.40;;
13951;SDS011;39535;52.192;9.886;2023-04-01T13:30:07;0.40;;;0.30;;
13951;SDS011;39535;52.192;9.886;2023-04-01T13:32:48;0.30;;;0.20;;
13951;SDS011;39535;52.192;9.886;2023-04-01T13:35:23;0.73;;;0.50;;
13951;SDS011;39535;52.192;9.886;2023-04-01T13:38:03;0.40;;;0.40;;
13951;SDS011;39535;52.192;9.886;2023-04-01T13:40:44;0.50;;;0.50;;
13951;SDS011;39535;52.192;9.886;2023-04-01T13:43:19;0.40;;;0.40;;
13951;SDS011;39535;52.192;9.886;2023-04-01T13:45:57;1.13;;;0.93;;
13951;SDS011;39535;52.192;9.886;2023-04-01T13:48:55;1.60;;;1.10;;
13951;SDS011;39535;52.192;9.886;2023-04-01T13:54:57;1.00;;;1.00;;
13951;SDS011;39535;52.192;9.886;2023-04-01T13:57:47;0.93;;;0.87;;
13951;SDS011;39535;52.192;9.886;2023-04-01T14:00:32;1.70;;;1.10;;
13951;SDS011;39535;52.192;9.886;2023-04-01T14:03:12;1.00;;;0.90;;
13951;SDS011;39535;52.192;9.886;2023-04-01T14:06:04;0.93;;;0.70;;
13951;SDS011;39535;52.192;9.886;2023-04-01T14:08:42;2.23;;;0.77;;
13951;SDS011;39535;52.192;9.886;2023-04-01T14:11:24;0.83;;;0.70;;
13951;SDS011;39535;52.192;9.886;2023-04-01T14:13:58;1.03;;;1.00;;
13951;SDS011;39535;52.192;9.886;2023-04-01T14:16:55;1.00;;;0.60;;
13951;SDS011;39535;52.192;9.886;2023-04-01T14:19:46;1.33;;;0.70;;
13951;SDS011;39535;52.192;9.886;2023-04-01T14:22:35;0.90;;;0.50;;
13951;SDS011;39535;52.192;9.886;2023-04-01T14:25:18;0.87;;;0.87;;
13951;SDS011;39535;52.192;9.886;2023-04-01T14:27:59;0.60;;;0.60;;
13951;SDS011;39535;52.192;9.886;2023-04-01T14:30:49;0.70;;;0.70;;
13951;SDS011;39535;52.192;9.886;2023-04-01T14:33:38;1.67;;;1.00;;
13951;SDS011;39535;52.192;9.886;2023-04-01T14:36:26;1.37;;;0.87;;
13951;SDS011;39535;52.192;9.886;2023-04-01T14:39:07;1.13;;;0.90;;
13951;SDS011;39535;52.192;9.886;2023-04-01T14:41:48;1.57;;;1.37;;
13951;SDS011;39535;52.192;9.886;2023-04-01T14:44:48;1.70;;;1.33;;
13951;SDS011;39535;52.192;9.886;2023-04-01T14:47:46;2.00;;;1.50;;
13951;SDS011;39535;52.192;9.886;2023-04-01T14:50:15;1.87;;;1.33;;
13951;SDS011;39535;52.192;9.886;2023-04-01T14:52:45;1.73;;;1.60;;
13951;SDS011;39535;52.192;9.886;2023-04-01T14:55:25;2.03;;;1.93;;
13951;SDS011;39535;52.192;9.886;2023-04-01T14:58:09;2.50;;;2.30;;
13951;SDS011;39535;52.192;9.886;2023-04-01T15:00:45;3.50;;;2.27;;
13951;SDS011;39535;52.192;9.886;2023-04-01T15:03:15;2.27;;;2.10;;
13951;SDS011;39535;52.192;9.886;2023-04-01T15:05:49;2.50;;;2.30;;
13951;SDS011;39535;52.192;9.886;2023-04-01T15:08:20;2.87;;;2.77;;
13951;SDS011;39535;52.192;9.886;2023-04-01T15:10:59;2.60;;;2.50;;
13951;SDS011;39535;52.192;9.886;2023-04-01T15:13:46;2.70;;;2.50;;
13951;SDS011;39535;52.192;9.886;2023-04-01T15:16:25;2.70;;;2.60;;
13951;SDS011;39535;52.192;9.886;2023-04-01T15:19:00;2.43;;;2.33;;
13951;SDS011;39535;52.192;9.886;2023-04-01T15:21:44;2.30;;;2.20;;
13951;SDS011;39535;52.192;9.886;2023-04-01T15:24:21;2.20;;;2.10;;
13951;SDS011;39535;52.192;9.886;2023-04-01T15:29:43;2.50;;;2.40;;
13951;SDS011;39535;52.192;9.886;2023-04-01T15:32:27;2.23;;;2.13;;
13951;SDS011;39535;52.192;9.886;2023-04-01T15:35:09;2.43;;;2.33;;
13951;SDS011;39535;52.192;9.886;2023-04-01T15:37:48;2.37;;;2.27;;
13951;SDS011;39535;52.192;9.886;2023-04-01T15:40:20;2.77;;;2.57;;
13951;SDS011;39535;52.192;9.886;2023-04-01T15:42:54;2.40;;;2.30;;
13951;SDS011;39535;52.192;9.886;2023-04-01T15:45:39;1.57;;;1.47;;
13951;SDS011;39535;52.192;9.886;2023-04-01T15:48:17;2.17;;;1.90;;
13951;SDS011;39535;52.192;9.886;2023-04-01T15:50:54;2.67;;;2.47;;
13951;SDS011;39535;52.192;9.886;2023-04-01T15:53:35;2.50;;;2.40;;
13951;SDS011;39535;52.192;9.886;2023-04-01T15:56:16;2.03;;;1.93;;
13951;SDS011;39535;52.192;9.886;2023-04-01T15:58:54;2.30;;;2.10;;
13951;SDS011;39535;52.192;9.886;2023-04-01T16:01:31;2.50;;;2.40;;
13951;SDS011;39535;52.192;9.886;2023-04-01T16:04:11;2.23;;;2.13;;
13951;SDS011;39535;52.192;9.886;2023-04-01T16:07:03;2.40;;;2.30;;
13951;SDS011;39535;52.192;9.886;2023-04-01T16:09:43;2.90;;;2.70;;
13951;SDS011;39535;52.192;9.886;2023-04-01T16:12:25;2.53;;;2.37;;
13951;SDS011;39535;52.192;9.886;2023-04-01T16:15:06;3.73;;;3.47;;
13951;SDS011;39535;52.192;9.886;2023-04-01T16:17:49;2.83;;;2.70;;
13951;SDS011;39535;52.192;9.886;2023-04-01T16:20:39;2.60;;;2.50;;
13951;SDS011;39535;52.192;9.886;2023-04-01T16:23:12;2.87;;;2.70;;
13951;SDS011;39535;52.192;9.886;2023-04-01T16:25:44;2.63;;;2.50;;
13951;SDS011;39535;52.192;9.886;2023-04-01T16:28:19;3.13;;;2.93;;
13951;SDS011;39535;52.192;9.886;2023-04-01T16:30:55;3.10;;;2.90;;
13951;SDS011;39535;52.192;9.886;2023-04-01T16:33:24;4.47;;;4.07;;
13951;SDS011;39535;52.192;9.886;2023-04-01T16:36:05;3.83;;;3.53;;